Aviation Digital Data Service (ADDS)

Output produced by METARs form (0534 UTC 26 February 2017)
found at http://aviationweather.gov/adds/metars/
 
KFNT 260520Z 2606/2706 27012G18KT P6SM SCT025 OVC040 
     FM261000 24011KT P6SM SCT150 BKN250 
     FM261600 22018G29KT P6SM SCT050 BKN070 
     FM270000 21014KT P6SM SCT070